createdAt,value
2019-03-19T00:00:47.685Z,98085.64
2019-03-19T00:02:49.289Z,98080.63
2019-03-19T00:04:50.886Z,98092.95
2019-03-19T00:06:52.521Z,98091.74
2019-03-19T00:08:54.128Z,98093.45
2019-03-19T00:10:55.767Z,98095.95
2019-03-19T00:12:57.373Z,98097.14
2019-03-19T00:14:58.972Z,98100.48
2019-03-19T00:17:00.629Z,98106.44
2019-03-19T00:19:02.242Z,98108.52
2019-03-19T00:21:03.874Z,98110.15
2019-03-19T00:23:05.471Z,98106.78
2019-03-19T00:25:07.083Z,98103.73
2019-03-19T00:27:08.723Z,98113.06
2019-03-19T00:29:10.322Z,98097.07
2019-03-19T00:31:11.962Z,98102.53
2019-03-19T00:33:13.563Z,98104.38
2019-03-19T00:35:15.164Z,98109.08
2019-03-19T00:37:16.798Z,98107.01
2019-03-19T00:39:18.393Z,98108.31
2019-03-19T00:41:20.008Z,98110.03
2019-03-19T00:43:21.621Z,98113.98
2019-03-19T00:45:23.253Z,98112.73
2019-03-19T00:47:24.899Z,98112.80
2019-03-19T00:49:26.484Z,98113.27
2019-03-19T00:51:28.064Z,98117.13
2019-03-19T00:53:29.672Z,98115.01
2019-03-19T00:55:40.140Z,98117.13
2019-03-19T00:57:32.961Z,98126.99
2019-03-19T00:59:34.552Z,98124.08
2019-03-19T01:01:38.640Z,98125.36
2019-03-19T01:03:37.849Z,98125.02
2019-03-19T01:05:39.512Z,98124.22
2019-03-19T01:07:41.114Z,98126.00
2019-03-19T01:09:42.713Z,98115.42
2019-03-19T01:11:44.350Z,98122.61
2019-03-19T01:13:45.998Z,98116.63
2019-03-19T01:15:47.587Z,98119.19
2019-03-19T01:17:49.288Z,98109.88
2019-03-19T01:19:50.900Z,98114.22
2019-03-19T01:21:52.498Z,98118.95
2019-03-19T01:23:54.143Z,98115.98
2019-03-19T01:25:56.013Z,98119.39
2019-03-19T01:27:57.419Z,98122.39
2019-03-19T01:29:59.040Z,98118.61
2019-03-19T01:32:00.624Z,98123.36
2019-03-19T01:34:02.252Z,98119.96
2019-03-19T01:36:03.850Z,98117.87
2019-03-19T01:38:05.446Z,98115.81
2019-03-19T01:40:07.058Z,98114.13
2019-03-19T01:42:08.655Z,98114.17
2019-03-19T01:44:10.259Z,98120.09
2019-03-19T01:46:11.854Z,98123.00
2019-03-19T01:48:13.464Z,98122.99
2019-03-19T01:50:15.093Z,98127.22
2019-03-19T01:52:16.700Z,98134.44
2019-03-19T01:54:18.293Z,98135.66
2019-03-19T01:56:19.925Z,98141.20
2019-03-19T01:58:21.527Z,98135.53
2019-03-19T02:00:23.122Z,98138.38
2019-03-19T02:02:25.217Z,98139.16
2019-03-19T02:04:26.809Z,98140.02
2019-03-19T02:06:28.438Z,98146.83
2019-03-19T02:08:30.049Z,98147.34
2019-03-19T02:10:31.645Z,98151.84
2019-03-19T02:12:33.238Z,98161.28
2019-03-19T02:14:34.835Z,98151.96
2019-03-19T02:16:36.476Z,98164.73
2019-03-19T02:18:38.063Z,98159.16
2019-03-19T02:20:39.658Z,98162.56
2019-03-19T02:22:41.254Z,98154.52
2019-03-19T02:24:42.869Z,98160.55
2019-03-19T02:26:44.517Z,98163.96
2019-03-19T02:28:46.114Z,98160.19
2019-03-19T02:30:47.711Z,98155.92
2019-03-19T02:32:49.316Z,98158.13
2019-03-19T02:34:50.916Z,98165.39
2019-03-19T02:36:52.561Z,98171.40
2019-03-19T02:38:54.172Z,98176.53
2019-03-19T02:40:55.774Z,98187.19
2019-03-19T02:42:57.385Z,98178.66
2019-03-19T02:44:58.983Z,98182.91
2019-03-19T02:47:00.614Z,98181.59
2019-03-19T02:49:02.221Z,98181.17
2019-03-19T02:51:03.822Z,98187.14
2019-03-19T02:53:05.422Z,98183.71
2019-03-19T02:55:07.030Z,98188.30
2019-03-19T02:57:08.626Z,98187.36
2019-03-19T02:59:10.258Z,98183.95
2019-03-19T03:01:11.853Z,98195.94
2019-03-19T03:03:13.473Z,98203.56
2019-03-19T03:05:15.067Z,98200.92
2019-03-19T03:07:16.663Z,98204.77
2019-03-19T03:09:18.291Z,98208.27
2019-03-19T03:11:19.891Z,98212.66
2019-03-19T03:13:21.487Z,98217.91
2019-03-19T03:15:23.086Z,98211.69
2019-03-19T03:17:24.683Z,98216.87
2019-03-19T03:19:26.317Z,98213.53
2019-03-19T03:21:27.914Z,98219.63
2019-03-19T03:23:29.512Z,98218.83
2019-03-19T03:25:31.490Z,98225.64
2019-03-19T03:27:33.097Z,98231.61
2019-03-19T03:29:34.716Z,98228.22
2019-03-19T03:31:36.315Z,98236.62
2019-03-19T03:33:37.912Z,98241.67
2019-03-19T03:35:39.517Z,98244.60
2019-03-19T03:37:41.115Z,98240.70
2019-03-19T03:39:42.722Z,98235.14
2019-03-19T03:41:44.323Z,98238.45
2019-03-19T03:43:45.912Z,98241.70
2019-03-19T03:45:47.505Z,98246.30
2019-03-19T03:47:49.102Z,98240.75
2019-03-19T03:49:50.733Z,98246.27
2019-03-19T03:51:52.333Z,98245.77
2019-03-19T03:53:53.927Z,98247.81
2019-03-19T03:55:55.563Z,98254.55
2019-03-19T03:57:57.161Z,98253.27
2019-03-19T03:59:58.787Z,98257.05
2019-03-19T04:02:00.388Z,98254.43
2019-03-19T04:04:02.009Z,98263.81
2019-03-19T04:06:03.632Z,98266.78
2019-03-19T04:08:05.235Z,98258.74
2019-03-19T04:10:06.846Z,98269.84
2019-03-19T04:12:08.442Z,98276.23
2019-03-19T04:14:10.035Z,98275.39
2019-03-19T04:16:11.663Z,98276.72
2019-03-19T04:18:13.266Z,98275.80
2019-03-19T04:20:14.888Z,98276.63
2019-03-19T04:22:16.487Z,98274.53
2019-03-19T04:24:18.250Z,98274.95
2019-03-19T04:26:19.845Z,98278.73
2019-03-19T04:28:21.428Z,98278.44
2019-03-19T04:30:23.034Z,98278.00
2019-03-19T04:32:24.938Z,98287.45
2019-03-19T04:34:26.569Z,98281.49
2019-03-19T04:36:28.153Z,98283.69
2019-03-19T04:38:29.773Z,98288.01
2019-03-19T04:40:31.373Z,98293.67
2019-03-19T04:42:32.978Z,98303.57
2019-03-19T04:44:34.559Z,98298.55
2019-03-19T04:46:36.153Z,98303.32
2019-03-19T04:48:37.785Z,98305.50
2019-03-19T04:50:39.378Z,98306.36
2019-03-19T04:52:40.999Z,98309.41
2019-03-19T04:54:42.598Z,98316.22
2019-03-19T04:56:44.179Z,98315.41
2019-03-19T04:58:45.797Z,98318.83
2019-03-19T05:00:47.382Z,98323.11
2019-03-19T05:02:49.016Z,98326.94
2019-03-19T05:04:50.613Z,98326.95
2019-03-19T05:06:52.211Z,98286.98
2019-03-19T05:08:53.838Z,98329.20
2019-03-19T05:10:55.434Z,98329.78
2019-03-19T05:12:57.046Z,98326.89
2019-03-19T05:14:58.682Z,98329.98
2019-03-19T05:17:00.271Z,98335.62
2019-03-19T05:19:01.903Z,98338.25
2019-03-19T05:21:03.490Z,98344.31
2019-03-19T05:23:05.085Z,98342.98
2019-03-19T05:25:06.685Z,98342.93
2019-03-19T05:27:08.268Z,98331.91
2019-03-19T05:29:09.906Z,98352.81
2019-03-19T05:31:11.502Z,98356.84
2019-03-19T05:33:13.138Z,98356.30
2019-03-19T05:35:14.732Z,98356.44
2019-03-19T05:37:16.316Z,98358.41
2019-03-19T05:39:17.911Z,98361.75
2019-03-19T05:41:19.503Z,98359.06
2019-03-19T05:43:21.092Z,98361.02
2019-03-19T05:45:22.686Z,98360.47
2019-03-19T05:47:24.281Z,98368.09
2019-03-19T05:49:25.866Z,98371.49
2019-03-19T05:51:27.457Z,98367.64
2019-03-19T05:53:29.049Z,98370.16
2019-03-19T05:55:30.671Z,98374.86
2019-03-19T05:57:32.262Z,98375.70
2019-03-19T05:59:33.854Z,98379.16
2019-03-19T06:01:35.496Z,98383.44
2019-03-19T06:03:37.100Z,98376.63
2019-03-19T06:05:38.738Z,98382.23
2019-03-19T06:07:40.348Z,98385.69
2019-03-19T06:09:41.961Z,98387.03
2019-03-19T06:11:43.551Z,98389.61
2019-03-19T06:13:45.151Z,98391.38
2019-03-19T06:15:46.777Z,98390.69
2019-03-19T06:17:48.400Z,98397.51
2019-03-19T06:19:50.186Z,98403.55
2019-03-19T06:21:51.781Z,98401.48
2019-03-19T06:23:53.379Z,98399.41
2019-03-19T06:25:55.015Z,98396.91
2019-03-19T06:28:00.698Z,98360.84
2019-03-19T06:29:58.454Z,98407.68
2019-03-19T06:32:00.093Z,98414.13
2019-03-19T06:34:05.577Z,98414.20
2019-03-19T06:36:07.375Z,98421.91
2019-03-19T06:38:08.994Z,98424.48
2019-03-19T06:40:10.583Z,98424.95
2019-03-19T06:42:12.242Z,98426.29
2019-03-19T06:44:13.840Z,98413.97
2019-03-19T06:46:15.446Z,98417.81
2019-03-19T06:48:17.091Z,98413.98
2019-03-19T06:50:18.703Z,98415.26
2019-03-19T06:52:20.352Z,98410.14
2019-03-19T06:54:21.940Z,98416.97
2019-03-19T06:56:23.522Z,98420.42
2019-03-19T06:58:25.154Z,98430.60
2019-03-19T07:00:26.772Z,98439.08
2019-03-19T07:02:28.415Z,98442.43
2019-03-19T07:04:30.000Z,98440.16
2019-03-19T07:06:31.700Z,98440.56
2019-03-19T07:08:33.336Z,98442.95
2019-03-19T07:10:34.948Z,98442.42
2019-03-19T07:12:36.551Z,98439.77
2019-03-19T07:14:38.156Z,98444.33
2019-03-19T07:16:39.751Z,98447.24
2019-03-19T07:18:41.356Z,98443.30
2019-03-19T07:20:42.995Z,98443.23
2019-03-19T07:22:44.681Z,98448.72
2019-03-19T07:24:48.052Z,98451.65
2019-03-19T07:26:47.973Z,98449.10
2019-03-19T07:28:49.615Z,98460.67
2019-03-19T07:30:51.209Z,98456.73
2019-03-19T07:32:52.857Z,98455.51
2019-03-19T07:34:54.457Z,98476.89
2019-03-19T07:36:56.056Z,98466.52
2019-03-19T07:38:57.668Z,98478.84
2019-03-19T07:40:59.294Z,98472.42
2019-03-19T07:43:06.200Z,98472.00
2019-03-19T07:45:07.793Z,98474.61
2019-03-19T07:47:09.386Z,98480.96
2019-03-19T07:49:10.997Z,98476.69
2019-03-19T07:51:12.858Z,98479.61
2019-03-19T07:53:14.472Z,98486.88
2019-03-19T07:55:16.121Z,98482.63
2019-03-19T07:57:17.787Z,98480.11
2019-03-19T07:59:19.402Z,98480.11
2019-03-19T08:01:21.322Z,98486.08
2019-03-19T08:03:22.933Z,98487.36
2019-03-19T08:05:32.664Z,98491.63
2019-03-19T08:07:26.238Z,98440.88
2019-03-19T08:09:27.869Z,98492.91
2019-03-19T08:11:29.504Z,98494.12
2019-03-19T08:13:31.103Z,98490.55
2019-03-19T08:15:32.742Z,98498.91
2019-03-19T08:17:34.342Z,98500.19
2019-03-19T08:19:36.003Z,98502.02
2019-03-19T08:21:37.601Z,98505.29
2019-03-19T08:23:39.193Z,98502.08
2019-03-19T08:25:40.786Z,98502.66
2019-03-19T08:27:42.409Z,98510.02
2019-03-19T08:29:43.991Z,98514.33
2019-03-19T08:31:45.589Z,98522.89
2019-03-19T08:33:47.171Z,98529.71
2019-03-19T08:35:48.771Z,98530.14
2019-03-19T08:37:50.392Z,98526.30
2019-03-19T08:39:52.008Z,98528.38
2019-03-19T08:41:53.606Z,98534.64
2019-03-19T08:43:55.216Z,98530.27
2019-03-19T08:45:56.809Z,98532.30
2019-03-19T08:47:58.437Z,98528.36
2019-03-19T08:50:00.040Z,98532.57
2019-03-19T08:52:06.564Z,98527.78
2019-03-19T08:54:08.157Z,98533.70
2019-03-19T08:56:09.930Z,98537.91
2019-03-19T08:58:11.521Z,98533.97
2019-03-19T09:00:13.132Z,98537.76
2019-03-19T09:02:14.729Z,98536.00
2019-03-19T09:04:16.327Z,98536.36
2019-03-19T09:06:17.939Z,98542.50
2019-03-19T09:08:19.524Z,98548.22
2019-03-19T09:10:21.153Z,98551.83
2019-03-19T09:12:22.746Z,98548.11
2019-03-19T09:14:24.382Z,98547.77
2019-03-19T09:16:25.984Z,98549.33
2019-03-19T09:18:27.587Z,98553.53
2019-03-19T09:20:29.222Z,98553.59
2019-03-19T09:22:30.832Z,98552.50
2019-03-19T09:24:32.466Z,98556.95
2019-03-19T09:26:34.048Z,98562.34
2019-03-19T09:28:35.646Z,98561.66
2019-03-19T09:30:37.290Z,98566.08
2019-03-19T09:32:38.879Z,98566.66
2019-03-19T09:34:40.513Z,98569.73
2019-03-19T09:36:42.110Z,98567.28
2019-03-19T09:38:43.745Z,98567.37
2019-03-19T09:40:45.377Z,98572.45
2019-03-19T09:42:46.960Z,98573.87
2019-03-19T09:44:58.259Z,98573.70
2019-03-19T09:46:50.465Z,98577.95
2019-03-19T09:48:52.066Z,98573.24
2019-03-19T09:50:53.680Z,98578.10
2019-03-19T09:52:55.278Z,98569.98
2019-03-19T09:54:56.884Z,98570.63
2019-03-19T09:56:58.478Z,98557.77
2019-03-19T09:59:00.121Z,98566.81
2019-03-19T10:01:05.578Z,98555.38
2019-03-19T10:03:07.183Z,98562.29
2019-03-19T10:05:08.791Z,98560.27
2019-03-19T10:07:10.421Z,98585.52
2019-03-19T10:09:12.029Z,98553.51
2019-03-19T10:11:13.634Z,98555.83
2019-03-19T10:13:15.287Z,98551.86
2019-03-19T10:15:16.903Z,98554.55
2019-03-19T10:17:18.533Z,98564.54
2019-03-19T10:19:20.145Z,98586.03
2019-03-19T10:21:21.943Z,98595.19
2019-03-19T10:23:23.573Z,98591.83
2019-03-19T10:25:25.193Z,98586.71
2019-03-19T10:27:26.860Z,98587.61
2019-03-19T10:29:37.815Z,98590.62
2019-03-19T10:31:30.121Z,98587.48
2019-03-19T10:33:31.763Z,98590.05
2019-03-19T10:35:33.368Z,98585.29
2019-03-19T10:37:35.872Z,98589.56
2019-03-19T10:39:37.516Z,98593.88
2019-03-19T10:41:39.106Z,98590.95
2019-03-19T10:43:40.716Z,98589.77
2019-03-19T10:45:42.315Z,98593.67
2019-03-19T10:47:43.923Z,98591.66
2019-03-19T10:49:45.508Z,98592.67
2019-03-19T10:51:47.111Z,98591.77
2019-03-19T10:53:48.724Z,98596.70
2019-03-19T10:55:50.317Z,98596.43
2019-03-19T10:57:51.945Z,98589.95
2019-03-19T10:59:53.588Z,98588.83
2019-03-19T11:01:55.198Z,98584.66
2019-03-19T11:03:56.849Z,98592.34
2019-03-19T11:05:58.464Z,98591.11
2019-03-19T11:08:00.058Z,98580.92
2019-03-19T11:10:02.715Z,98585.19
2019-03-19T11:12:06.672Z,98583.60
2019-03-19T11:14:08.339Z,98580.25
2019-03-19T11:16:09.982Z,98581.76
2019-03-19T11:18:11.627Z,98583.89
2019-03-19T11:20:13.355Z,98580.47
2019-03-19T11:22:15.039Z,98578.07
2019-03-19T11:24:16.637Z,98577.48
2019-03-19T11:26:18.248Z,98576.54
2019-03-19T11:28:19.898Z,98576.44
2019-03-19T11:30:21.536Z,98590.92
2019-03-19T11:32:23.132Z,98596.27
2019-03-19T11:34:24.733Z,98587.03
2019-03-19T11:36:26.349Z,98591.34
2019-03-19T11:38:27.960Z,98596.47
2019-03-19T11:40:30.541Z,98594.75
2019-03-19T11:42:32.124Z,98598.02
2019-03-19T11:44:33.718Z,98601.30
2019-03-19T11:46:35.327Z,98599.92
2019-03-19T11:48:36.934Z,98598.97
2019-03-19T11:50:40.329Z,98603.19
2019-03-19T11:52:41.940Z,98609.06
2019-03-19T11:54:43.533Z,98606.02
2019-03-19T11:56:45.259Z,98614.98
2019-03-19T11:58:46.855Z,98617.48
2019-03-19T12:00:51.005Z,98614.30
2019-03-19T12:02:52.696Z,98616.06
2019-03-19T12:04:54.310Z,98612.22
2019-03-19T12:06:55.977Z,98619.84
2019-03-19T12:08:57.680Z,98614.25
2019-03-19T12:10:59.287Z,98612.44
2019-03-19T12:13:04.989Z,98587.36
2019-03-19T12:15:06.635Z,98604.52
2019-03-19T12:17:08.248Z,98609.47
2019-03-19T12:19:09.860Z,98599.22
2019-03-19T12:21:11.475Z,98602.39
2019-03-19T12:23:13.121Z,98597.84
2019-03-19T12:25:14.787Z,98599.94
2019-03-19T12:27:16.430Z,98600.22
2019-03-19T12:29:18.040Z,98606.30
2019-03-19T12:31:19.633Z,98564.23
2019-03-19T12:33:21.248Z,98600.95
2019-03-19T12:35:22.850Z,98598.40
2019-03-19T12:37:24.487Z,98595.88
2019-03-19T12:39:26.100Z,98596.26
2019-03-19T12:41:27.707Z,98595.62
2019-03-19T12:43:29.342Z,98600.30
2019-03-19T12:45:30.949Z,98603.45
2019-03-19T12:47:32.550Z,98611.88
2019-03-19T12:49:34.730Z,98613.79
2019-03-19T12:51:36.322Z,98602.67
2019-03-19T12:53:37.927Z,98608.11
2019-03-19T12:55:39.557Z,98610.30
2019-03-19T12:57:41.199Z,98616.60
2019-03-19T12:59:42.831Z,98617.00
2019-03-19T13:01:44.537Z,98618.56
2019-03-19T13:03:46.230Z,98615.83
2019-03-19T13:05:47.822Z,98616.73
2019-03-19T13:07:49.436Z,98569.79
2019-03-19T13:09:51.075Z,98614.36
2019-03-19T13:11:52.703Z,98614.02
2019-03-19T13:13:54.316Z,98617.48
2019-03-19T13:15:55.921Z,98615.14
2019-03-19T13:17:57.540Z,98615.35
2019-03-19T13:19:59.144Z,98610.94
2019-03-19T13:22:00.747Z,98612.04
2019-03-19T13:24:06.646Z,98619.81
2019-03-19T13:26:08.248Z,98599.12
2019-03-19T13:28:09.878Z,98614.70
2019-03-19T13:30:11.474Z,98615.65
2019-03-19T13:32:13.111Z,98610.95
2019-03-19T13:34:14.706Z,98615.18
2019-03-19T13:36:16.318Z,98612.19
2019-03-19T13:38:17.918Z,98615.52
2019-03-19T13:40:19.515Z,98617.17
2019-03-19T13:42:21.164Z,98616.93
2019-03-19T13:44:22.753Z,98609.52
2019-03-19T13:46:24.335Z,98616.67
2019-03-19T13:48:25.935Z,98616.64
2019-03-19T13:50:27.549Z,98619.16
2019-03-19T13:52:29.539Z,98620.89
2019-03-19T13:54:31.143Z,98616.84
2019-03-19T13:56:32.779Z,98617.73
2019-03-19T13:58:34.432Z,98625.33
2019-03-19T14:00:36.256Z,98626.16
2019-03-19T14:02:37.924Z,98628.30
2019-03-19T14:04:39.527Z,98624.09
2019-03-19T14:06:41.121Z,98613.26
2019-03-19T14:08:42.713Z,98621.33
2019-03-19T14:10:44.309Z,98618.56
2019-03-19T14:12:45.962Z,98620.85
2019-03-19T14:14:47.551Z,98628.20
2019-03-19T14:16:49.157Z,98621.09
2019-03-19T14:18:50.808Z,98630.53
2019-03-19T14:20:52.403Z,98631.91
2019-03-19T14:22:54.033Z,98635.56
2019-03-19T14:24:55.625Z,98628.11
2019-03-19T14:26:57.236Z,98628.25
2019-03-19T14:28:58.835Z,98634.37
2019-03-19T14:31:08.366Z,98640.97
2019-03-19T14:33:06.508Z,98635.59
2019-03-19T14:35:08.116Z,98637.44
2019-03-19T14:37:09.715Z,98636.25
2019-03-19T14:39:11.473Z,98636.77
2019-03-19T14:41:13.136Z,98645.30
2019-03-19T14:43:14.806Z,98635.03
2019-03-19T14:45:16.416Z,98641.61
2019-03-19T14:47:18.023Z,98643.86
2019-03-19T14:49:19.629Z,98646.69
2019-03-19T14:51:21.267Z,98646.73
2019-03-19T14:53:22.867Z,98645.59
2019-03-19T14:55:24.466Z,98643.52
2019-03-19T14:57:26.097Z,98643.73
2019-03-19T14:59:27.706Z,98644.34
2019-03-19T15:01:29.368Z,98647.81
2019-03-19T15:03:30.962Z,98648.23
2019-03-19T15:05:32.558Z,98652.70
2019-03-19T15:07:34.210Z,98650.51
2019-03-19T15:09:35.824Z,98645.08
2019-03-19T15:11:37.422Z,98652.33
2019-03-19T15:13:39.028Z,98647.39
2019-03-19T15:15:40.626Z,98643.70
2019-03-19T15:17:42.262Z,98650.00
2019-03-19T15:19:43.893Z,98644.87
2019-03-19T15:21:45.633Z,98647.19
2019-03-19T15:23:47.238Z,98646.51
2019-03-19T15:25:48.838Z,98649.22
2019-03-19T15:27:50.429Z,98647.20
2019-03-19T15:29:57.933Z,98645.08
2019-03-19T15:31:59.620Z,98645.70
2019-03-19T15:34:06.296Z,98640.59
2019-03-19T15:36:07.885Z,98647.53
2019-03-19T15:38:09.518Z,98642.89
2019-03-19T15:40:11.114Z,98642.52
2019-03-19T15:42:12.738Z,98653.23
2019-03-19T15:44:14.400Z,98654.57
2019-03-19T15:46:16.010Z,98656.34
2019-03-19T15:48:17.606Z,98657.67
2019-03-19T15:50:19.201Z,98668.83
2019-03-19T15:52:20.829Z,98663.75
2019-03-19T15:54:22.440Z,98672.34
2019-03-19T15:56:24.034Z,98669.82
2019-03-19T15:58:25.630Z,98672.34
2019-03-19T16:00:27.225Z,98678.36
2019-03-19T16:02:28.900Z,98682.25
2019-03-19T16:04:30.574Z,98681.53
2019-03-19T16:06:32.253Z,98684.33
2019-03-19T16:08:34.254Z,98686.64
2019-03-19T16:10:35.850Z,98690.61
2019-03-19T16:12:37.465Z,98696.67
2019-03-19T16:14:39.076Z,98689.54
2019-03-19T16:16:40.705Z,98699.39
2019-03-19T16:18:42.302Z,98706.17
2019-03-19T16:20:43.964Z,98711.33
2019-03-19T16:22:45.566Z,98713.84
2019-03-19T16:24:47.169Z,98713.37
2019-03-19T16:26:48.775Z,98723.23
2019-03-19T16:28:50.388Z,98726.81
2019-03-19T16:30:52.030Z,98721.50
2019-03-19T16:32:53.634Z,98736.63
2019-03-19T16:34:55.265Z,98733.31
2019-03-19T16:36:56.865Z,98732.11
2019-03-19T16:38:58.468Z,98741.39
2019-03-19T16:41:00.361Z,98745.92
2019-03-19T16:43:06.955Z,98749.16
2019-03-19T16:45:08.592Z,98747.59
2019-03-19T16:47:10.190Z,98752.04
2019-03-19T16:49:11.902Z,98761.08
2019-03-19T16:51:13.508Z,98760.91
2019-03-19T16:53:15.126Z,98764.41
2019-03-19T16:55:16.760Z,98773.37
2019-03-19T16:57:19.106Z,98766.66
2019-03-19T16:59:20.716Z,98775.27
2019-03-19T17:01:22.309Z,98778.86
2019-03-19T17:03:24.433Z,98786.56
2019-03-19T17:05:26.212Z,98787.98
2019-03-19T17:07:27.826Z,98795.61
2019-03-19T17:09:29.483Z,98794.33
2019-03-19T17:11:31.093Z,98793.70
2019-03-19T17:13:32.785Z,98800.55
2019-03-19T17:15:34.381Z,98803.55
2019-03-19T17:17:35.973Z,98801.71
2019-03-19T17:19:37.579Z,98808.14
2019-03-19T17:21:39.174Z,98788.23
2019-03-19T17:23:40.769Z,98805.06
2019-03-19T17:25:42.417Z,98808.12
2019-03-19T17:27:44.028Z,98809.10
2019-03-19T17:29:45.677Z,98812.08
2019-03-19T17:31:47.260Z,98814.14
2019-03-19T17:33:48.886Z,98821.92
2019-03-19T17:35:50.479Z,98756.47
2019-03-19T17:37:52.090Z,98823.31
2019-03-19T17:39:53.733Z,98826.19
2019-03-19T17:41:55.326Z,98823.56
2019-03-19T17:43:56.976Z,98825.75
2019-03-19T17:45:58.601Z,98830.19
2019-03-19T17:48:00.267Z,98831.42
2019-03-19T17:50:07.237Z,98831.42
2019-03-19T17:52:08.853Z,98835.33
2019-03-19T17:54:10.465Z,98844.34
2019-03-19T17:56:12.149Z,98848.56
2019-03-19T17:58:13.731Z,98844.34
2019-03-19T18:00:15.404Z,98843.59
2019-03-19T18:02:23.926Z,98848.70
2019-03-19T18:04:18.670Z,98846.62
2019-03-19T18:06:20.265Z,98851.70
2019-03-19T18:08:21.862Z,98854.12
2019-03-19T18:10:23.493Z,98857.97
2019-03-19T18:12:25.095Z,98855.39
2019-03-19T18:14:26.693Z,98862.14
2019-03-19T18:16:28.304Z,98852.62
2019-03-19T18:18:29.907Z,98858.23
2019-03-19T18:20:31.519Z,98859.83
2019-03-19T18:22:33.158Z,98868.33
2019-03-19T18:24:34.758Z,98861.39
2019-03-19T18:26:36.417Z,98865.13
2019-03-19T18:28:38.019Z,98865.98
2019-03-19T18:30:39.798Z,98864.98
2019-03-19T18:32:41.413Z,98867.38
2019-03-19T18:34:43.010Z,98870.41
2019-03-19T18:36:44.596Z,98882.89
2019-03-19T18:38:46.189Z,98872.66
2019-03-19T18:40:47.781Z,98872.92
2019-03-19T18:42:49.388Z,98874.21
2019-03-19T18:44:51.031Z,98875.77
2019-03-19T18:46:52.645Z,98878.33
2019-03-19T18:48:54.241Z,98880.47
2019-03-19T18:50:55.859Z,98883.41
2019-03-19T18:52:57.466Z,98886.40
2019-03-19T18:54:59.187Z,98891.45
2019-03-19T18:57:00.787Z,98892.27
2019-03-19T18:59:06.964Z,98893.59
2019-03-19T19:01:08.562Z,98898.30
2019-03-19T19:03:10.168Z,98911.75
2019-03-19T19:05:11.992Z,98900.36
2019-03-19T19:07:13.634Z,98903.63
2019-03-19T19:09:15.257Z,98906.03
2019-03-19T19:11:16.857Z,98911.91
2019-03-19T19:13:18.450Z,98913.42
2019-03-19T19:15:20.072Z,98915.48
2019-03-19T19:17:21.666Z,98912.42
2019-03-19T19:19:23.266Z,98919.42
2019-03-19T19:21:24.961Z,98912.72
2019-03-19T19:23:26.564Z,98923.42
2019-03-19T19:25:28.216Z,98917.52
2019-03-19T19:27:29.832Z,98923.98
2019-03-19T19:29:31.425Z,98922.28
2019-03-19T19:31:33.017Z,98925.27
2019-03-19T19:33:34.618Z,98929.81
2019-03-19T19:35:36.264Z,98928.48
2019-03-19T19:37:38.006Z,98938.41
2019-03-19T19:39:39.694Z,98943.34
2019-03-19T19:41:41.346Z,98940.16
2019-03-19T19:43:42.946Z,98940.75
2019-03-19T19:45:44.598Z,98944.13
2019-03-19T19:47:46.190Z,98947.50
2019-03-19T19:49:47.807Z,98948.64
2019-03-19T19:51:49.401Z,98952.36
2019-03-19T19:53:51.014Z,98957.48
2019-03-19T19:55:52.730Z,98961.80
2019-03-19T19:57:54.326Z,98961.33
2019-03-19T19:59:55.957Z,98960.52
2019-03-19T20:01:57.597Z,98967.34
2019-03-19T20:03:59.212Z,98963.89
2019-03-19T20:08:07.846Z,98960.33
2019-03-19T20:10:09.444Z,98968.06
2019-03-19T20:12:11.051Z,98961.17
2019-03-19T20:14:13.408Z,98966.30
2019-03-19T20:16:15.001Z,98966.63
2019-03-19T20:18:16.583Z,98962.78
2019-03-19T20:20:18.220Z,98956.85
2019-03-19T20:22:19.960Z,98961.89
2019-03-19T20:24:21.567Z,98968.59
2019-03-19T20:26:23.511Z,98963.91
2019-03-19T20:28:25.151Z,98965.66
2019-03-19T20:30:26.756Z,98975.95
2019-03-19T20:32:28.386Z,98971.43
2019-03-19T20:34:29.991Z,98973.24
2019-03-19T20:36:31.659Z,98976.28
2019-03-19T20:38:33.269Z,98975.00
2019-03-19T20:40:34.918Z,98973.90
2019-03-19T20:42:36.560Z,98974.41
2019-03-19T20:44:38.175Z,98972.52
2019-03-19T20:46:39.810Z,98980.27
2019-03-19T20:48:41.420Z,98976.42
2019-03-19T20:50:43.200Z,98981.89
2019-03-19T20:52:44.837Z,98990.38
2019-03-19T20:54:46.450Z,98990.89
2019-03-19T20:56:48.046Z,98990.77
2019-03-19T20:58:49.644Z,98985.25
2019-03-19T21:00:51.228Z,98999.41
2019-03-19T21:02:52.875Z,98998.55
2019-03-19T21:04:54.473Z,99003.32
2019-03-19T21:06:56.086Z,98999.25
2019-03-19T21:08:57.699Z,99003.00
2019-03-19T21:10:59.344Z,99003.42
2019-03-19T21:13:00.947Z,98986.88
2019-03-19T21:15:07.235Z,99008.24
2019-03-19T21:17:08.835Z,99009.14
2019-03-19T21:19:10.448Z,99017.27
2019-03-19T21:21:12.047Z,99017.73
2019-03-19T21:23:13.645Z,99018.20
2019-03-19T21:25:15.237Z,99017.05
2019-03-19T21:27:16.857Z,99011.88
2019-03-19T21:29:18.450Z,99011.88
2019-03-19T21:31:20.046Z,99017.34
2019-03-19T21:33:21.756Z,99017.90
2019-03-19T21:35:23.398Z,99018.37
2019-03-19T21:37:25.014Z,99025.98
2019-03-19T21:39:26.624Z,99021.28
2019-03-19T21:41:28.233Z,99023.89
2019-03-19T21:43:29.815Z,99009.72
2019-03-19T21:45:31.550Z,99024.52
2019-03-19T21:47:33.201Z,99021.64
2019-03-19T21:49:34.791Z,99026.83
2019-03-19T21:51:36.429Z,99027.89
2019-03-19T21:53:38.044Z,99026.63
2019-03-19T21:55:39.693Z,99029.74
2019-03-19T21:57:41.286Z,99030.47
2019-03-19T21:59:42.891Z,99031.31
2019-03-19T22:01:44.545Z,99031.30
2019-03-19T22:03:46.141Z,99037.30
2019-03-19T22:05:47.769Z,99046.14
2019-03-19T22:07:49.382Z,99047.77
2019-03-19T22:09:51.101Z,99039.50
2019-03-19T22:11:52.734Z,99045.58
2019-03-19T22:13:54.316Z,99046.57
2019-03-19T22:15:55.924Z,99038.53
2019-03-19T22:17:57.553Z,99040.58
2019-03-19T22:19:59.155Z,99038.48
2019-03-19T22:22:00.786Z,99041.77
2019-03-19T22:24:06.908Z,99038.83
2019-03-19T22:26:08.893Z,99046.57
2019-03-19T22:28:10.489Z,99039.77
2019-03-19T22:30:12.085Z,99042.71
2019-03-19T22:32:13.727Z,99043.48
2019-03-19T22:34:15.332Z,99041.01
2019-03-19T22:36:16.954Z,99036.02
2019-03-19T22:38:18.559Z,99042.86
2019-03-19T22:40:20.153Z,99043.45
2019-03-19T22:42:21.736Z,99050.80
2019-03-19T22:44:23.384Z,99053.36
2019-03-19T22:46:24.992Z,99053.48
2019-03-19T22:48:26.604Z,99055.27
2019-03-19T22:50:28.248Z,99055.73
2019-03-19T22:52:29.872Z,99057.02
2019-03-19T22:54:31.477Z,99049.22
2019-03-19T22:56:33.085Z,99056.86
2019-03-19T22:58:34.696Z,99049.14
2019-03-19T23:00:38.936Z,99060.77
2019-03-19T23:02:40.588Z,99054.58
2019-03-19T23:04:42.187Z,99054.81
2019-03-19T23:06:43.782Z,99064.69
2019-03-19T23:08:45.383Z,99058.23
2019-03-19T23:10:47.011Z,99067.61
2019-03-19T23:12:48.650Z,99076.20
2019-03-19T23:14:50.245Z,99067.70
2019-03-19T23:16:51.962Z,99072.00
2019-03-19T23:18:53.560Z,99073.73
2019-03-19T23:20:55.168Z,99075.88
2019-03-19T23:22:56.827Z,99075.88
2019-03-19T23:24:58.422Z,99070.63
2019-03-19T23:27:00.015Z,99076.27
2019-03-19T23:29:06.624Z,99080.14
2019-03-19T23:31:08.222Z,99086.11
2019-03-19T23:33:09.868Z,99083.55
2019-03-19T23:35:11.470Z,99081.84
2019-03-19T23:37:13.074Z,99086.97
2019-03-19T23:39:14.656Z,99097.60
2019-03-19T23:41:16.235Z,99092.03
2019-03-19T23:43:17.844Z,99099.64
2019-03-19T23:45:19.438Z,99094.13
2019-03-19T23:47:21.034Z,99090.69
2019-03-19T23:49:22.630Z,99094.50
2019-03-19T23:51:24.256Z,99103.88